Hovedside
METAR-TAF:

METAR-TAF

Lufthavner :

Tartu lufthavn

Tartu, Estland

breddegrad: 58-18N, lengdegrad: 026-44E, høyde over havet: 59 m

Gjeldene værobservasjon

Denne rapporten ble laget for 12 minutter siden, klokken 14:50 UTC
Vind 5 kt fra Vest
Temperatur -13°C
Luftfuktighet 78%
Trykk 1015 hPa
Sikt 10 km eller mer
Spredte skyer i en høyde av 500 ft

METAR: EETU 211450Z 27005KT 9999 SCT005 M13/M16 Q1015

Tid: 17:02 (15:02 UTC)

Varsel

Denne rapporten ble laget for 18 timer og 2 minutter siden, klokken 21:00 UTC
Varsel gyldig fra 20. klokken 22 UTC til 21. klokken 04 UTC
Vind 12 kt fra Vest-nordvest
Sikt: 8000 m
Brutte skyer i en høyde av 1000 ft
Brutte skyer i en høyde av 2000 ft
Midlertidig
fra 20. klokken 22 UTC til 21. klokken 04 UTC
Sikt: 1500 m
Brutte skyer i en høyde av 600 ft
Spredte skyer i en høyde av 1500 ft, Bygeskyer.
snøbyger

TAF: EETU 202100Z 2022/2104 29012KT 8000 BKN010 BKN020 TEMPO 2022/2104 1500 SHSN BKN006 SCT015CB

Værobservasjoner og værvarsel for over 4000 flyplasser (METAR- og TAF-rapporter).

Tilgjengelige stasjoner er representert av de røde og gule prikkene på kartet.

Hold musepekeren over prikken for å se navnet på stasjonen.

Klikk så for å se værobservasjoner og -varsler.

For å forandre kartet kan du klikke på den grønne knappen med svart kryss for å zoome inn, på den grønne knappen med strek for å zoome ut, eller på de grønne pilene for å se tilstøtende kart.


METAR-TAF: